McMinnville, Tennessee
Current Conditions -  °F | °C
As of 10:35 AM on Saturday 22 Nov 2014 (Local Time) from KRNC Reporting Station
Clear Clear  
Wind Chill: 61°   Ceiling: Unl
Heat Index: 61°   Visibility: 10mi
Dew Point: 34°   Wind: 7mph
Humidity: 36%   Direction: 180°S
Pressure: 30.33"   Gusts: NA
Location:  35.68°N, 85.77°W
Report Text: KRNC 221635Z AUTO 18006KT 10SM CLR 16/01 A3033 RMK
Loading
Personal Weather Stations






























Interactive Weather Map New forecast layout! Learn more

10-Day Weather Forecast

Advertisements
Track Severe Weather on mobile